createdAt,value
2022-11-19T00:28:18.594Z,95994.84
2022-11-19T00:38:23.027Z,95997.47
2022-11-19T01:30:14.812Z,96003.16
2022-11-19T01:35:07.391Z,96003.44
2022-11-19T01:40:48.232Z,95999.09
2022-11-19T01:51:52.149Z,96010.81
2022-11-19T01:56:43.947Z,96022.38
2022-11-19T02:01:35.814Z,96018.63
2022-11-19T02:06:33.389Z,96015.97
2022-11-19T02:12:03.051Z,96025.72
2022-11-19T02:17:31.792Z,96023.13
2022-11-19T02:22:53.068Z,96024.22
2022-11-19T02:28:10.079Z,96036.66
2022-11-19T02:33:25.632Z,96022.13
2022-11-19T02:38:49.848Z,96027.63
2022-11-19T02:43:44.298Z,96023.78
2022-11-19T02:48:46.516Z,96027.00
2022-11-19T02:53:38.264Z,96031.34
2022-11-19T02:58:51.471Z,96026.84
2022-11-19T03:04:01.889Z,96036.56
2022-11-19T03:08:54.019Z,96034.91
2022-11-19T03:14:19.378Z,96033.09
2022-11-19T03:19:43.124Z,96031.16
2022-11-19T03:24:43.475Z,96031.31
2022-11-19T03:29:43.032Z,96041.06
2022-11-19T03:34:39.871Z,96041.13
2022-11-19T03:39:37.573Z,96040.47
2022-11-19T03:44:50.680Z,96028.72
2022-11-19T03:49:47.289Z,96021.25
2022-11-19T03:54:41.178Z,96030.63
2022-11-19T03:59:33.000Z,96035.50
2022-11-19T04:04:39.558Z,96040.66
2022-11-19T04:09:31.420Z,96035.78
2022-11-19T04:14:23.212Z,96038.56
2022-11-19T04:19:15.134Z,96033.16
2022-11-19T04:24:07.439Z,96031.69
2022-11-19T04:28:59.147Z,96036.13
2022-11-19T04:33:50.916Z,96028.97
2022-11-19T04:38:42.684Z,96028.50
2022-11-19T04:43:34.545Z,96027.81
2022-11-19T04:48:26.451Z,96030.44
2022-11-19T04:53:18.847Z,96031.91
2022-11-19T04:58:10.729Z,96038.25
2022-11-19T10:25:15.118Z,96193.50
2022-11-19T16:12:02.762Z,96183.41
2022-11-19T17:41:55.943Z,96258.19
2022-11-19T18:27:53.771Z,96280.69
